createdAt,value
2022-10-30T00:00:43.475Z,65387.91
2022-10-30T00:03:13.622Z,65387.91
2022-10-30T00:05:43.292Z,65387.91
2022-10-30T00:08:12.133Z,65387.91
2022-10-30T00:10:40.493Z,65387.91
2022-10-30T00:13:08.233Z,65387.91
2022-10-30T00:15:37.165Z,65387.91
2022-10-30T00:18:05.082Z,65387.91
2022-10-30T00:20:32.627Z,65387.91
2022-10-30T00:23:00.520Z,65387.91
2022-10-30T00:25:35.569Z,65387.91
2022-10-30T00:28:03.573Z,100840.81
2022-10-30T00:30:31.371Z,65387.91
2022-10-30T00:33:00.717Z,65387.91
2022-10-30T00:35:31.309Z,65387.91
2022-10-30T00:38:01.134Z,65387.91
2022-10-30T00:40:29.570Z,65387.91
2022-10-30T00:43:05.574Z,65387.91
2022-10-30T00:45:33.302Z,65387.91
2022-10-30T00:48:05.519Z,65387.91
2022-10-30T00:50:37.482Z,65387.91
2022-10-30T00:53:09.997Z,65387.91
2022-10-30T00:55:55.909Z,65387.91
2022-10-30T00:58:30.029Z,65387.91
2022-10-30T01:01:01.336Z,65387.91
2022-10-30T01:03:31.444Z,65387.91
2022-10-30T01:06:03.852Z,65387.91
2022-10-30T01:08:32.633Z,65387.91
2022-10-30T01:11:03.732Z,65387.91
2022-10-30T01:13:42.167Z,65387.91
2022-10-30T01:16:26.997Z,65387.91
2022-10-30T01:20:06.527Z,65387.91
2022-10-30T01:23:45.566Z,65387.91
2022-10-30T01:27:16.152Z,77642.22
2022-10-30T01:30:41.469Z,100591.84
2022-10-30T01:34:12.319Z,65387.91
2022-10-30T01:37:44.976Z,65387.91
2022-10-30T01:40:14.936Z,100557.88
2022-10-30T01:43:15.735Z,100557.88
2022-10-30T01:46:55.570Z,65387.91
2022-10-30T01:50:46.063Z,65387.91
2022-10-30T01:54:23.409Z,65387.91
2022-10-30T01:57:55.499Z,65387.91
2022-10-30T02:01:22.364Z,65387.91
2022-10-30T02:04:50.352Z,65387.91
2022-10-30T02:08:16.504Z,65387.91
2022-10-30T02:11:16.935Z,100557.88
2022-10-30T02:14:44.742Z,65387.91
2022-10-30T02:18:12.229Z,65387.91
2022-10-30T02:21:23.813Z,65387.91
2022-10-30T02:24:49.752Z,65387.91
2022-10-30T02:28:14.827Z,65387.91
2022-10-30T02:31:41.430Z,65387.91
2022-10-30T02:35:06.329Z,65387.91
2022-10-30T02:38:05.729Z,100557.88
2022-10-30T02:41:31.825Z,65387.91
2022-10-30T02:44:57.995Z,65387.91
2022-10-30T02:51:21.659Z,65387.91
2022-10-30T02:53:50.881Z,65387.91
2022-10-30T02:57:17.358Z,65387.91
2022-10-30T03:00:43.325Z,65387.91
2022-10-30T03:04:09.707Z,65387.91
2022-10-30T03:07:35.833Z,65387.91
2022-10-30T03:11:04.612Z,65387.91
2022-10-30T03:14:32.250Z,65387.91
2022-10-30T03:17:58.591Z,65387.91
2022-10-30T03:21:26.473Z,65387.91
2022-10-30T03:24:53.478Z,65387.91
2022-10-30T03:28:20.923Z,65387.91
2022-10-30T03:31:47.309Z,65387.91
2022-10-30T03:35:13.362Z,65387.91
2022-10-30T03:38:39.848Z,65387.91
2022-10-30T03:42:06.662Z,65387.91
2022-10-30T03:45:34.369Z,65387.91
2022-10-30T03:49:00.670Z,65387.91
2022-10-30T03:52:28.115Z,65387.91
2022-10-30T03:55:54.426Z,65387.91
2022-10-30T03:59:20.417Z,65387.91
2022-10-30T04:02:48.601Z,65387.91
2022-10-30T04:06:15.547Z,65387.91
2022-10-30T04:09:41.664Z,65387.91
2022-10-30T04:13:08.507Z,65387.91
2022-10-30T04:16:36.212Z,65387.91
2022-10-30T04:20:04.059Z,65387.91
2022-10-30T04:23:30.341Z,65387.91
2022-10-30T04:26:56.547Z,65387.91
2022-10-30T04:30:24.992Z,65387.91
2022-10-30T04:33:51.965Z,65387.91
2022-10-30T04:37:19.470Z,65387.91
2022-10-30T04:40:45.473Z,65387.91
2022-10-30T04:44:12.184Z,65387.91
2022-10-30T04:47:38.428Z,65387.91
2022-10-30T04:51:05.482Z,65387.91
2022-10-30T04:54:32.923Z,65387.91
2022-10-30T04:58:00.272Z,65387.91
2022-10-30T05:01:27.558Z,65387.91
2022-10-30T05:04:53.725Z,65387.91
2022-10-30T05:08:20.299Z,65387.91
2022-10-30T05:11:48.161Z,65387.91
2022-10-30T05:15:15.071Z,65387.91
2022-10-30T05:18:41.306Z,65387.91
2022-10-30T05:22:07.507Z,65387.91
2022-10-30T05:25:33.775Z,65387.91
2022-10-30T05:29:04.386Z,65387.91
2022-10-30T05:32:31.164Z,65387.91
2022-10-30T05:35:57.215Z,65387.91
2022-10-30T05:38:49.219Z,65387.91
2022-10-30T05:42:15.538Z,65387.91
2022-10-30T05:45:42.925Z,65387.91
2022-10-30T05:49:09.288Z,65387.91
2022-10-30T05:52:35.294Z,65387.91
2022-10-30T05:56:01.587Z,65387.91
2022-10-30T05:59:27.544Z,65387.91
2022-10-30T06:03:00.242Z,65387.91
2022-10-30T06:06:27.115Z,65387.91
2022-10-30T06:09:53.343Z,65387.91
2022-10-30T06:13:19.517Z,65387.91
2022-10-30T06:16:45.473Z,65387.91
2022-10-30T06:20:12.991Z,65387.91
2022-10-30T06:23:39.214Z,65387.91
2022-10-30T06:27:05.507Z,65387.91
2022-10-30T06:30:25.881Z,65387.91
2022-10-30T06:33:05.321Z,65387.91
2022-10-30T06:36:22.265Z,65387.91
2022-10-30T06:39:48.632Z,65387.91
2022-10-30T06:43:14.614Z,65387.91
2022-10-30T06:45:56.028Z,100557.88
2022-10-30T06:49:21.060Z,65387.91
2022-10-30T06:52:50.223Z,65387.91
2022-10-30T06:56:16.441Z,65387.91
2022-10-30T06:58:43.884Z,100616.59
2022-10-30T07:01:21.613Z,100616.59
2022-10-30T07:03:59.514Z,65387.91
2022-10-30T07:07:10.110Z,65387.91
2022-10-30T07:09:43.798Z,100616.59
2022-10-30T07:13:05.997Z,65387.91
2022-10-30T07:15:53.170Z,65387.91
2022-10-30T07:18:32.445Z,65387.91
2022-10-30T07:21:38.480Z,65387.91
2022-10-30T07:24:51.610Z,65387.91
2022-10-30T07:27:50.483Z,65387.91
2022-10-30T07:30:52.695Z,65387.91
2022-10-30T07:33:33.585Z,65387.91
2022-10-30T07:36:02.971Z,65387.91
2022-10-30T07:38:53.866Z,65387.91
2022-10-30T07:41:26.895Z,65387.91
2022-10-30T07:43:54.377Z,65387.91
2022-10-30T07:46:49.505Z,65387.91
2022-10-30T07:49:18.997Z,65387.91
2022-10-30T07:51:53.963Z,65387.91
2022-10-30T07:54:21.443Z,65387.91
2022-10-30T07:56:55.617Z,65387.91
2022-10-30T07:59:31.893Z,65387.91
2022-10-30T08:02:28.769Z,65387.91
2022-10-30T08:04:56.300Z,65387.91
2022-10-30T08:07:23.942Z,100599.00
2022-10-30T08:09:51.413Z,65387.91
2022-10-30T08:12:20.403Z,65387.91
2022-10-30T08:14:48.098Z,100599.00
2022-10-30T08:17:15.759Z,65387.91
2022-10-30T08:19:46.833Z,65387.91
2022-10-30T08:22:28.098Z,65387.91
2022-10-30T08:25:02.283Z,100599.00
2022-10-30T08:28:19.941Z,65387.91
2022-10-30T08:30:47.398Z,65387.91
2022-10-30T08:33:21.838Z,65387.91
2022-10-30T08:35:50.615Z,65387.91
2022-10-30T08:39:16.982Z,65387.91
2022-10-30T08:41:49.165Z,65387.91
2022-10-30T08:45:16.514Z,65387.91
2022-10-30T08:48:40.575Z,65387.91
2022-10-30T08:52:08.658Z,65387.91
2022-10-30T08:55:25.048Z,65387.91
2022-10-30T08:57:56.874Z,65387.91
2022-10-30T09:01:09.859Z,65387.91
2022-10-30T09:04:35.953Z,65387.91
2022-10-30T09:07:12.917Z,65387.91
2022-10-30T09:09:40.718Z,65387.91
2022-10-30T09:12:08.268Z,65387.91
2022-10-30T09:14:37.595Z,65387.91
2022-10-30T09:17:26.312Z,65387.91
2022-10-30T09:20:12.128Z,65387.91
2022-10-30T09:22:49.457Z,65387.91
2022-10-30T09:25:57.943Z,65387.91
2022-10-30T09:28:25.478Z,65387.91
2022-10-30T09:30:56.203Z,65387.91
2022-10-30T09:33:25.031Z,65387.91
2022-10-30T09:35:52.504Z,65387.91
2022-10-30T09:38:19.927Z,65387.91
2022-10-30T09:41:10.337Z,100938.66
2022-10-30T09:43:50.835Z,100936.56
2022-10-30T09:46:33.439Z,100880.56
2022-10-30T09:49:11.975Z,100849.63
2022-10-30T09:51:55.119Z,100782.00
2022-10-30T09:54:36.107Z,100822.06
2022-10-30T09:57:08.274Z,100843.03
2022-10-30T09:59:50.071Z,100725.28
2022-10-30T10:02:33.763Z,100495.44
2022-10-30T10:05:07.837Z,100399.84
2022-10-30T10:07:41.152Z,100289.03
2022-10-30T10:10:16.751Z,100181.63
2022-10-30T10:12:47.540Z,100091.50
2022-10-30T10:15:20.636Z,100059.09
2022-10-30T10:17:48.138Z,100062.63
2022-10-30T10:20:27.822Z,100068.00
2022-10-30T10:22:58.368Z,100059.63
2022-10-30T10:25:27.237Z,100048.22
2022-10-30T10:28:07.825Z,100039.72
2022-10-30T10:30:44.514Z,100033.13
2022-10-30T10:33:30.083Z,100036.97
2022-10-30T10:36:11.943Z,100036.19
2022-10-30T10:38:57.925Z,100103.72
2022-10-30T10:41:36.115Z,100119.84
2022-10-30T10:44:21.574Z,100119.31
2022-10-30T10:47:06.978Z,100162.84
2022-10-30T10:49:49.842Z,100123.38
2022-10-30T10:52:21.731Z,100140.56
2022-10-30T10:54:53.442Z,100234.81
2022-10-30T10:57:30.667Z,100204.28
2022-10-30T11:00:03.602Z,100239.09
2022-10-30T11:02:39.441Z,100261.97
2022-10-30T11:05:14.696Z,100216.97
2022-10-30T11:07:49.020Z,100158.75
2022-10-30T11:10:18.803Z,100131.16
2022-10-30T11:12:46.540Z,100182.38
2022-10-30T11:15:26.507Z,100175.91
2022-10-30T11:18:02.024Z,100251.75
2022-10-30T11:20:37.069Z,100295.13
2022-10-30T11:23:33.197Z,100299.56
2022-10-30T11:26:05.097Z,100300.31
2022-10-30T11:28:43.748Z,100296.47
2022-10-30T11:31:23.800Z,100268.13
2022-10-30T11:33:52.097Z,100276.88
2022-10-30T11:36:23.830Z,100260.88
2022-10-30T11:38:53.439Z,100169.13
2022-10-30T11:41:21.682Z,100090.44
2022-10-30T11:43:50.050Z,100046.41
2022-10-30T11:46:24.256Z,100065.59
2022-10-30T11:48:54.883Z,100078.69
2022-10-30T11:51:38.344Z,100051.56
2022-10-30T11:54:11.213Z,100084.19
2022-10-30T11:56:47.200Z,100042.00
2022-10-30T11:59:19.855Z,99968.78
2022-10-30T12:02:00.020Z,99965.91
2022-10-30T12:04:29.295Z,100011.25
2022-10-30T12:07:08.904Z,99995.13
2022-10-30T12:09:45.476Z,100007.78
2022-10-30T12:12:22.143Z,100070.91
2022-10-30T12:14:50.563Z,100119.41
2022-10-30T12:17:20.059Z,100132.63
2022-10-30T12:19:50.394Z,100145.56
2022-10-30T12:22:31.401Z,100186.44
2022-10-30T12:25:02.968Z,100141.38
2022-10-30T12:27:33.050Z,100128.03
2022-10-30T12:30:10.297Z,100176.63
2022-10-30T12:32:46.591Z,100199.47
2022-10-30T12:35:29.683Z,100183.41
2022-10-30T12:38:00.829Z,100252.00
2022-10-30T12:40:32.488Z,100237.00
2022-10-30T12:43:06.041Z,100219.28
2022-10-30T12:45:38.610Z,100211.13
2022-10-30T12:48:16.841Z,100252.16
2022-10-30T12:50:51.919Z,100245.66
2022-10-30T12:53:28.396Z,100275.22
2022-10-30T12:56:01.292Z,100281.00
2022-10-30T12:58:35.330Z,100297.25
2022-10-30T13:01:13.694Z,100303.81
2022-10-30T13:03:48.815Z,100312.00
2022-10-30T13:06:20.013Z,100331.09
2022-10-30T13:09:57.056Z,65387.91
2022-10-30T13:13:31.044Z,65387.91
2022-10-30T13:16:16.502Z,100331.09
2022-10-30T13:19:17.469Z,65387.91
2022-10-30T13:22:48.156Z,65387.91
2022-10-30T13:26:24.871Z,65387.91
2022-10-30T13:29:05.888Z,65387.91
2022-10-30T13:31:46.191Z,65387.91
2022-10-30T13:34:28.041Z,65387.91
2022-10-30T13:37:41.259Z,65387.91
2022-10-30T13:40:17.487Z,100095.19
2022-10-30T13:42:58.478Z,100128.56
2022-10-30T13:46:05.547Z,100174.06
2022-10-30T13:48:48.486Z,100138.09
2022-10-30T13:51:29.052Z,100117.81
2022-10-30T13:54:05.315Z,100116.56
2022-10-30T13:56:34.438Z,100082.34
2022-10-30T13:59:10.951Z,100021.41
2022-10-30T14:01:44.434Z,99898.28
2022-10-30T14:04:17.227Z,99646.41
2022-10-30T14:06:53.222Z,99541.25
2022-10-30T14:09:30.721Z,99709.03
2022-10-30T14:12:03.393Z,99945.91
2022-10-30T14:14:32.743Z,100031.91
2022-10-30T14:17:17.381Z,100121.13
2022-10-30T14:20:30.778Z,100244.31
2022-10-30T14:23:09.693Z,100305.31
2022-10-30T14:25:37.779Z,100294.50
2022-10-30T14:28:06.474Z,100347.72
2022-10-30T14:30:36.616Z,100318.88
2022-10-30T14:33:05.625Z,100283.53
2022-10-30T14:35:39.241Z,100244.69
2022-10-30T14:38:26.585Z,100252.31
2022-10-30T14:41:23.289Z,100279.31
2022-10-30T14:44:01.911Z,100433.34
2022-10-30T14:46:37.362Z,100716.75
2022-10-30T14:49:26.481Z,100815.72
2022-10-30T14:52:05.481Z,100882.69
2022-10-30T14:54:40.598Z,100918.31
2022-10-30T14:57:22.594Z,100921.47
2022-10-30T14:59:50.267Z,100877.78
2022-10-30T15:02:33.218Z,100856.22
2022-10-30T15:05:18.893Z,100738.53
2022-10-30T15:07:52.406Z,100716.16
2022-10-30T15:10:28.643Z,100683.81
2022-10-30T15:13:06.439Z,100666.53
2022-10-30T15:15:35.063Z,100656.88
2022-10-30T15:18:09.374Z,100651.22
2022-10-30T15:20:39.917Z,100624.28
2022-10-30T15:23:11.774Z,100614.03
2022-10-30T15:25:47.771Z,100592.75
2022-10-30T15:28:19.827Z,100579.03
2022-10-30T15:31:01.521Z,100557.50
2022-10-30T15:33:31.398Z,100541.34
2022-10-30T15:36:00.859Z,100512.00
2022-10-30T15:38:28.450Z,100498.19
2022-10-30T15:40:59.346Z,100475.53
2022-10-30T15:43:30.943Z,100471.22
2022-10-30T15:46:53.990Z,65387.91
2022-10-30T15:49:33.175Z,100451.47
2022-10-30T15:52:04.171Z,100456.03
2022-10-30T15:54:34.091Z,100457.34
2022-10-30T15:57:42.716Z,100460.31
2022-10-30T15:59:52.812Z,100459.19
2022-10-30T16:02:22.500Z,100451.63
2022-10-30T16:04:51.070Z,100450.81
2022-10-30T16:07:22.490Z,100457.78
2022-10-30T16:09:54.633Z,100447.00
2022-10-30T16:12:25.723Z,100441.84
2022-10-30T16:14:53.876Z,100441.28
2022-10-30T16:17:22.227Z,100443.69
2022-10-30T16:19:53.356Z,100440.19
2022-10-30T16:22:26.107Z,100431.53
2022-10-30T16:24:55.272Z,100430.94
2022-10-30T16:27:24.853Z,100433.31
2022-10-30T16:29:54.927Z,100432.19
2022-10-30T16:32:25.989Z,100439.34
2022-10-30T16:34:57.604Z,100436.13
2022-10-30T16:37:33.150Z,100433.41
2022-10-30T16:40:03.895Z,100436.63
2022-10-30T16:42:32.923Z,100440.25
2022-10-30T16:45:38.297Z,100442.88
2022-10-30T16:48:14.038Z,100443.91
2022-10-30T16:50:42.101Z,100437.38
2022-10-30T16:53:19.518Z,100435.69
2022-10-30T16:55:47.791Z,100442.88
2022-10-30T16:58:17.052Z,100445.78
2022-10-30T17:00:51.296Z,100440.66
2022-10-30T17:03:23.746Z,100442.75
2022-10-30T17:05:59.267Z,100450.44
2022-10-30T17:08:35.627Z,100459.72
2022-10-30T17:11:05.058Z,100462.31
2022-10-30T17:13:36.277Z,100471.41
2022-10-30T17:16:24.679Z,100475.13
2022-10-30T17:18:54.466Z,100471.16
2022-10-30T17:21:24.950Z,100477.81
2022-10-30T17:23:57.396Z,100474.81
2022-10-30T17:26:26.944Z,100471.81
2022-10-30T17:28:55.002Z,100471.69
2022-10-30T17:31:32.013Z,100479.41
2022-10-30T17:34:14.073Z,100483.38
2022-10-30T17:36:42.179Z,100487.13
2022-10-30T17:39:11.228Z,100479.91
2022-10-30T17:41:39.822Z,100492.00
2022-10-30T17:44:08.486Z,100498.75
2022-10-30T17:46:36.010Z,100495.56
2022-10-30T17:49:03.788Z,100504.16
2022-10-30T17:51:32.600Z,100502.78
2022-10-30T17:56:32.321Z,100502.78
2022-10-30T17:58:59.966Z,100502.78
2022-10-30T18:01:28.466Z,100502.78
2022-10-30T18:03:58.015Z,100502.78
2022-10-30T18:06:27.549Z,100502.78
2022-10-30T18:08:55.581Z,100502.78
2022-10-30T18:11:26.947Z,100502.78
2022-10-30T18:13:57.706Z,100502.78
2022-10-30T18:16:26.489Z,77433.81
2022-10-30T18:21:23.515Z,65387.91
2022-10-30T18:23:53.078Z,65387.91
2022-10-30T18:26:23.698Z,65387.91
2022-10-30T18:28:52.041Z,65387.91
2022-10-30T18:31:24.212Z,65387.91
2022-10-30T18:33:52.584Z,65387.91
2022-10-30T18:36:22.109Z,65387.91
2022-10-30T18:38:49.989Z,65387.91
2022-10-30T18:41:20.395Z,65387.91
2022-10-30T18:43:48.261Z,65387.91
2022-10-30T18:46:17.099Z,65387.91
2022-10-30T18:48:46.712Z,65387.91
2022-10-30T18:51:18.279Z,65387.91
2022-10-30T18:53:51.659Z,65387.91
2022-10-30T18:56:20.342Z,65387.91
2022-10-30T18:58:48.058Z,65387.91
2022-10-30T19:01:16.969Z,65387.91
2022-10-30T19:03:47.072Z,65387.91
2022-10-30T19:06:16.365Z,65387.91
2022-10-30T19:08:43.880Z,65387.91
2022-10-30T19:11:13.591Z,65387.91
2022-10-30T19:13:41.955Z,65387.91
2022-10-30T19:16:12.963Z,65387.91
2022-10-30T19:18:40.487Z,65387.91
2022-10-30T19:21:15.786Z,65387.91
2022-10-30T19:23:44.248Z,65387.91
2022-10-30T19:26:13.706Z,65387.91
2022-10-30T19:28:41.573Z,65387.91
2022-10-30T19:31:13.994Z,65387.91
2022-10-30T19:33:41.739Z,65387.91
2022-10-30T19:36:28.310Z,65387.91
2022-10-30T19:38:56.085Z,65387.91
2022-10-30T19:41:24.675Z,65387.91
2022-10-30T19:43:52.812Z,65387.91
2022-10-30T19:46:21.020Z,65387.91
2022-10-30T19:48:57.756Z,65387.91
2022-10-30T19:51:28.038Z,65387.91
2022-10-30T19:53:55.511Z,65387.91
2022-10-30T19:56:23.164Z,65387.91
2022-10-30T19:58:50.782Z,65387.91
2022-10-30T20:01:18.590Z,65387.91
2022-10-30T20:03:46.990Z,65387.91
2022-10-30T20:06:16.138Z,65387.91
2022-10-30T20:08:44.966Z,65387.91
2022-10-30T20:11:12.592Z,65387.91
2022-10-30T20:13:40.230Z,65387.91
2022-10-30T20:16:08.631Z,65387.91
2022-10-30T20:18:36.844Z,65387.91
2022-10-30T20:21:08.160Z,65387.91
2022-10-30T20:23:35.706Z,65387.91
2022-10-30T20:26:07.040Z,65387.91
2022-10-30T20:28:37.512Z,65387.91
2022-10-30T20:31:05.815Z,65387.91
2022-10-30T20:33:33.964Z,65387.91
2022-10-30T20:36:01.874Z,65387.91
2022-10-30T20:38:32.764Z,65387.91
2022-10-30T20:41:02.108Z,65387.91
2022-10-30T20:43:33.306Z,65387.91
2022-10-30T20:46:01.530Z,65387.91
2022-10-30T20:48:29.571Z,65387.91
2022-10-30T20:50:58.058Z,65387.91
2022-10-30T20:53:25.979Z,65387.91
2022-10-30T20:55:55.817Z,65387.91
2022-10-30T20:58:23.267Z,65387.91
2022-10-30T21:00:54.870Z,65387.91
2022-10-30T21:03:22.379Z,65387.91
2022-10-30T21:05:56.068Z,65387.91
2022-10-30T21:08:23.723Z,65387.91
2022-10-30T21:10:51.295Z,65387.91
2022-10-30T21:13:18.751Z,65387.91
2022-10-30T21:15:46.285Z,65387.91
2022-10-30T21:18:15.114Z,65387.91
2022-10-30T21:20:42.714Z,65387.91
2022-10-30T21:23:10.744Z,65387.91
2022-10-30T21:25:38.201Z,65387.91
2022-10-30T21:28:05.988Z,65387.91
2022-10-30T21:30:33.454Z,65387.91
2022-10-30T21:33:01.706Z,65387.91
2022-10-30T21:35:30.859Z,65387.91
2022-10-30T21:37:58.416Z,65387.91
2022-10-30T21:40:26.001Z,65387.91
2022-10-30T21:42:53.465Z,65387.91
2022-10-30T21:45:21.024Z,65387.91
2022-10-30T21:47:52.530Z,65387.91
2022-10-30T21:50:19.986Z,65387.91
2022-10-30T21:52:48.747Z,65387.91
2022-10-30T21:55:16.215Z,65387.91
2022-10-30T21:57:43.812Z,65387.91
2022-10-30T22:00:12.815Z,65387.91
2022-10-30T22:02:41.527Z,65387.91
2022-10-30T22:05:09.960Z,65387.91
2022-10-30T22:07:37.413Z,65387.91
2022-10-30T22:10:07.726Z,65387.91
2022-10-30T22:12:35.195Z,65387.91
2022-10-30T22:15:02.672Z,65387.91
2022-10-30T22:17:32.371Z,65387.91
2022-10-30T22:20:02.699Z,65387.91
2022-10-30T22:22:30.695Z,65387.91
2022-10-30T22:24:58.106Z,65387.91
2022-10-30T22:27:26.919Z,65387.91
2022-10-30T22:29:54.421Z,65387.91
2022-10-30T22:32:23.102Z,65387.91
2022-10-30T22:34:50.662Z,65387.91
2022-10-30T22:37:18.724Z,65387.91
2022-10-30T22:39:46.348Z,65387.91
2022-10-30T22:42:13.934Z,65387.91
2022-10-30T22:44:43.215Z,65387.91
2022-10-30T22:47:10.934Z,65387.91
2022-10-30T22:49:38.530Z,65387.91
2022-10-30T22:52:06.259Z,65387.91
2022-10-30T22:54:33.794Z,65387.91
2022-10-30T22:57:01.615Z,65387.91
2022-10-30T22:59:29.055Z,65387.91
2022-10-30T23:01:58.060Z,65387.91
2022-10-30T23:04:25.771Z,65387.91
2022-10-30T23:06:54.052Z,65387.91
2022-10-30T23:09:23.106Z,65387.91
2022-10-30T23:11:50.851Z,65387.91
2022-10-30T23:14:19.073Z,65387.91
2022-10-30T23:16:46.622Z,65387.91
2022-10-30T23:19:15.544Z,65387.91
2022-10-30T23:21:43.101Z,65387.91
2022-10-30T23:24:10.701Z,65387.91
2022-10-30T23:26:38.251Z,65387.91
2022-10-30T23:29:05.915Z,65387.91
2022-10-30T23:31:36.144Z,65387.91
2022-10-30T23:34:06.420Z,65387.91
2022-10-30T23:36:35.340Z,65387.91
2022-10-30T23:39:06.291Z,65387.91
2022-10-30T23:41:35.090Z,65387.91
2022-10-30T23:44:04.892Z,65387.91
2022-10-30T23:46:32.799Z,65387.91
2022-10-30T23:49:03.404Z,65387.91
2022-10-30T23:51:31.629Z,65387.91
2022-10-30T23:54:00.959Z,65387.91
2022-10-30T23:56:31.179Z,65387.91
2022-10-30T23:58:59.066Z,65387.91
